Glen Gardner, New Jersey
Current Conditions -  °F | °C
As of 7:53 AM on Sunday 21 Dec 2014 (Local Time) from KSMQ Reporting Station
Overcast Overcast  
Wind Chill: 27°   Ceiling: 3100
Heat Index: 32°   Visibility: 10mi
Dew Point: 23°   Wind: 5mph
Humidity: 69%   Direction: 350°N
Pressure: 30.29"   Gusts: NA
Location:  40.7°N, 74.94°W
Report Text: KSMQ 211253Z AUTO 35004KT 10SM OVC031 00/M05 A3029 RMK AO2 SLP259 T00001050
Loading
Personal Weather Stations






























Interactive Weather Map New forecast layout! Learn more

10-Day Weather Forecast

Advertisements
Track Severe Weather on mobile